createdAt,value
2023-01-29T00:00:23.538Z,95929.56
2023-01-29T00:02:52.883Z,95942.66
2023-01-29T00:05:27.772Z,95939.53
2023-01-29T00:07:57.475Z,95936.13
2023-01-29T00:10:26.667Z,95935.88
2023-01-29T00:12:55.910Z,95931.66
2023-01-29T00:15:24.821Z,95926.97
2023-01-29T00:17:53.770Z,95928.25
2023-01-29T00:20:22.521Z,95918.00
2023-01-29T00:22:51.357Z,95925.63
2023-01-29T00:25:20.296Z,95923.78
2023-01-29T00:27:49.342Z,95911.94
2023-01-29T00:30:20.297Z,95926.34
2023-01-29T00:32:49.327Z,95917.41
2023-01-29T00:35:18.386Z,95922.66
2023-01-29T00:37:47.312Z,95926.56
2023-01-29T00:40:16.803Z,95923.44
2023-01-29T00:43:04.892Z,95925.53
2023-01-29T00:45:34.410Z,95919.00
2023-01-29T00:48:04.342Z,95922.66
2023-01-29T00:50:33.635Z,95923.94
2023-01-29T00:53:02.451Z,95909.00
2023-01-29T00:55:31.424Z,95909.53
2023-01-29T00:58:00.341Z,95909.53
2023-01-29T01:00:30.033Z,95900.59
2023-01-29T01:03:08.470Z,95892.47
2023-01-29T01:05:37.539Z,95891.97
2023-01-29T01:08:26.276Z,95900.91
2023-01-29T01:11:06.902Z,95900.41
2023-01-29T01:13:35.852Z,95896.47
2023-01-29T01:16:11.081Z,95898.59
2023-01-29T01:18:40.421Z,95886.25
2023-01-29T01:21:09.506Z,95885.75
2023-01-29T01:23:38.360Z,95892.06
2023-01-29T01:26:10.324Z,95889.72
2023-01-29T01:28:40.231Z,95874.53
2023-01-29T01:31:14.533Z,95885.31
2023-01-29T01:33:43.535Z,95879.81
2023-01-29T01:36:14.333Z,95882.16
2023-01-29T01:38:46.159Z,95873.78
2023-01-29T01:41:21.354Z,95869.84
2023-01-29T01:43:59.379Z,95869.03
2023-01-29T01:46:37.597Z,95864.31
2023-01-29T01:49:19.064Z,95859.59
2023-01-29T01:51:52.647Z,95849.13
2023-01-29T01:54:33.179Z,95843.88
2023-01-29T01:57:16.574Z,95843.09
2023-01-29T02:00:12.383Z,95845.72
2023-01-29T02:03:05.494Z,95836.81
2023-01-29T02:05:55.166Z,95855.19
2023-01-29T02:09:04.624Z,95852.03
2023-01-29T02:11:33.735Z,95844.72
2023-01-29T02:14:02.889Z,95852.56
2023-01-29T02:16:34.636Z,95842.09
2023-01-29T02:19:11.643Z,95846.81
2023-01-29T02:21:46.244Z,95844.47
2023-01-29T02:24:18.343Z,95840.00
2023-01-29T02:27:00.373Z,95832.41
2023-01-29T02:29:47.935Z,95833.44
2023-01-29T02:32:32.217Z,95827.94
2023-01-29T02:35:25.952Z,95830.56
2023-01-29T02:38:18.750Z,95823.22
2023-01-29T02:40:59.642Z,95826.88
2023-01-29T02:43:41.795Z,95837.38
2023-01-29T02:46:38.246Z,95826.88
2023-01-29T02:49:09.821Z,95825.03
2023-01-29T02:51:52.279Z,95825.31
2023-01-29T02:54:29.550Z,95824.25
2023-01-29T02:57:01.779Z,95816.09
2023-01-29T02:59:45.013Z,95820.81
2023-01-29T03:02:25.220Z,95779.91
2023-01-29T03:05:00.552Z,95818.47
2023-01-29T03:07:43.258Z,95813.44
2023-01-29T03:10:22.276Z,95817.63
2023-01-29T03:13:05.773Z,95811.84
2023-01-29T03:15:47.702Z,95812.88
2023-01-29T03:18:34.885Z,95798.13
2023-01-29T03:21:35.402Z,95789.75
2023-01-29T03:24:25.458Z,95796.78
2023-01-29T03:27:13.449Z,95792.81
2023-01-29T03:30:06.327Z,95791.19
2023-01-29T03:32:52.564Z,95797.69
2023-01-29T03:35:34.102Z,95796.25
2023-01-29T03:38:12.051Z,95783.03
2023-01-29T03:40:51.187Z,95789.50
2023-01-29T03:43:37.469Z,95777.31
2023-01-29T03:46:19.388Z,95774.13
2023-01-29T03:49:22.869Z,95762.53
2023-01-29T03:52:03.632Z,95757.69
2023-01-29T03:54:55.374Z,95760.56
2023-01-29T03:57:39.431Z,95761.84
2023-01-29T04:00:16.060Z,95764.41
2023-01-29T04:03:23.964Z,95768.34
2023-01-29T04:06:22.946Z,95774.41
2023-01-29T04:09:12.995Z,95768.63
2023-01-29T04:11:52.520Z,95767.56
2023-01-29T04:14:21.687Z,95767.78
2023-01-29T04:16:58.153Z,95767.19
2023-01-29T04:19:52.051Z,95769.41
2023-01-29T04:22:28.428Z,95757.19
2023-01-29T04:25:03.320Z,95760.22
2023-01-29T04:28:30.932Z,95770.25
2023-01-29T04:31:07.254Z,95748.31
2023-01-29T04:33:52.007Z,95750.69
2023-01-29T04:36:29.560Z,95751.78
2023-01-29T04:39:11.917Z,95739.63
2023-01-29T04:41:52.450Z,95734.91
2023-01-29T04:44:27.787Z,95736.75
2023-01-29T04:47:09.210Z,95737.91
2023-01-29T04:49:49.921Z,95742.72
2023-01-29T04:52:34.156Z,95734.38
2023-01-29T04:55:20.894Z,95741.28
2023-01-29T04:58:07.857Z,95729.63
2023-01-29T05:00:44.782Z,95721.41
2023-01-29T05:03:16.670Z,95719.34
2023-01-29T05:05:50.194Z,95727.59
2023-01-29T05:08:24.778Z,95717.41
2023-01-29T05:10:56.290Z,95721.91
2023-01-29T05:13:27.616Z,95717.00
2023-01-29T05:16:15.505Z,95707.81
2023-01-29T05:18:44.456Z,95696.47
2023-01-29T05:21:13.653Z,95704.78
2023-01-29T05:23:59.962Z,95700.03
2023-01-29T05:26:47.325Z,95695.66
2023-01-29T05:29:16.139Z,95700.22
2023-01-29T05:31:46.089Z,95695.94
2023-01-29T05:34:14.982Z,95696.84
2023-01-29T05:36:43.822Z,95683.50
2023-01-29T05:39:12.770Z,95677.56
2023-01-29T05:41:41.822Z,95680.28
2023-01-29T05:44:11.626Z,95683.69
2023-01-29T05:46:40.548Z,95679.63
2023-01-29T05:49:09.357Z,95671.69
2023-01-29T05:51:38.165Z,95677.59
2023-01-29T05:54:07.097Z,95677.53
2023-01-29T05:56:36.013Z,95680.31
2023-01-29T05:59:04.987Z,95672.06
2023-01-29T06:01:34.623Z,95664.22
2023-01-29T06:04:04.353Z,95672.34
2023-01-29T06:06:33.395Z,95672.19
2023-01-29T06:09:03.197Z,95665.81
2023-01-29T06:11:32.092Z,95664.47
2023-01-29T06:14:02.016Z,95667.50
2023-01-29T06:16:30.934Z,95654.50
2023-01-29T06:18:59.854Z,95664.91
2023-01-29T06:21:28.732Z,95662.72
2023-01-29T06:23:57.742Z,95657.63
2023-01-29T06:26:26.701Z,95656.84
2023-01-29T06:28:55.656Z,95649.03
2023-01-29T06:31:37.959Z,95653.31
2023-01-29T06:34:08.881Z,95649.59
2023-01-29T06:36:37.923Z,95647.81
2023-01-29T06:39:06.800Z,95646.09
2023-01-29T06:41:35.881Z,95637.19
2023-01-29T06:44:04.783Z,95632.09
2023-01-29T06:46:33.603Z,95635.97
2023-01-29T06:49:02.789Z,95624.78
2023-01-29T06:51:31.678Z,95625.97
2023-01-29T06:54:00.804Z,95624.16
2023-01-29T06:56:29.777Z,95619.59
2023-01-29T06:58:58.645Z,95620.00
2023-01-29T07:01:35.977Z,95617.50
2023-01-29T07:04:05.966Z,95617.13
2023-01-29T07:06:35.159Z,95623.16
2023-01-29T07:09:06.714Z,95617.66
2023-01-29T07:11:38.465Z,95623.84
2023-01-29T07:14:07.619Z,95629.06
2023-01-29T07:16:36.683Z,95619.44
2023-01-29T07:19:05.640Z,95614.47
2023-01-29T07:21:34.482Z,95625.16
2023-01-29T07:24:03.943Z,95619.66
2023-01-29T07:26:32.914Z,95616.16
2023-01-29T07:29:01.771Z,95613.31
2023-01-29T07:31:30.793Z,95611.53
2023-01-29T07:33:59.663Z,95614.13
2023-01-29T07:36:29.097Z,95602.34
2023-01-29T07:38:57.889Z,95606.69
2023-01-29T07:41:26.720Z,95613.31
2023-01-29T07:43:56.464Z,95607.72
2023-01-29T07:46:25.379Z,95604.34
2023-01-29T07:48:54.319Z,95597.63
2023-01-29T07:51:23.175Z,95593.41
2023-01-29T07:53:52.159Z,95595.53
2023-01-29T07:56:21.087Z,95591.72
2023-01-29T07:58:49.960Z,95582.66
2023-01-29T08:01:19.275Z,95576.63
2023-01-29T08:03:50.043Z,95580.06
2023-01-29T08:06:20.000Z,95575.41
2023-01-29T08:08:48.896Z,95570.13
2023-01-29T08:11:17.745Z,95547.53
2023-01-29T08:13:47.233Z,95564.09
2023-01-29T08:16:16.176Z,95535.22
2023-01-29T08:18:48.277Z,95558.44
2023-01-29T08:21:17.198Z,95558.72
2023-01-29T08:23:46.355Z,95565.78
2023-01-29T08:26:15.284Z,95552.34
2023-01-29T08:28:44.076Z,95567.00
2023-01-29T08:31:17.510Z,95558.63
2023-01-29T08:33:46.501Z,95553.34
2023-01-29T08:36:15.945Z,95548.97
2023-01-29T08:38:44.744Z,95546.34
2023-01-29T08:41:13.696Z,95568.13
2023-01-29T08:43:42.471Z,95549.84
2023-01-29T08:46:11.412Z,95564.19
2023-01-29T08:48:40.661Z,95551.69
2023-01-29T08:51:10.084Z,95553.75
2023-01-29T08:53:39.044Z,95557.22
2023-01-29T08:56:08.241Z,95553.22
2023-01-29T08:58:37.112Z,95542.44
2023-01-29T09:01:08.699Z,95550.09
2023-01-29T09:03:38.862Z,95549.66
2023-01-29T09:06:09.580Z,95546.38
2023-01-29T09:08:38.731Z,95546.94
2023-01-29T09:11:07.956Z,95550.19
2023-01-29T09:13:36.908Z,95536.31
2023-01-29T09:16:06.034Z,95535.97
2023-01-29T09:18:34.891Z,95535.84
2023-01-29T09:21:03.918Z,95540.34
2023-01-29T09:23:33.275Z,95539.53
2023-01-29T09:26:02.138Z,95542.59
2023-01-29T09:28:31.044Z,95543.47
2023-01-29T09:31:03.563Z,95544.31
2023-01-29T09:33:33.143Z,95540.53
2023-01-29T09:36:04.125Z,95533.13
2023-01-29T09:38:32.962Z,95543.00
2023-01-29T09:41:46.203Z,95531.69
2023-01-29T09:44:26.146Z,95536.19
2023-01-29T09:46:56.853Z,95537.34
2023-01-29T09:49:51.119Z,95524.38
2023-01-29T09:52:29.579Z,95527.09
2023-01-29T09:55:04.406Z,95529.00
2023-01-29T09:57:46.197Z,95524.88
2023-01-29T10:00:32.674Z,95532.06
2023-01-29T10:03:23.275Z,95526.66
2023-01-29T10:06:16.273Z,95533.38
2023-01-29T10:09:06.360Z,95528.53
2023-01-29T10:12:13.798Z,95516.00
2023-01-29T10:15:06.614Z,95523.44
2023-01-29T10:17:53.805Z,95527.38
2023-01-29T10:20:35.916Z,95527.88
2023-01-29T10:23:22.424Z,95523.34
2023-01-29T10:25:51.570Z,95520.84
2023-01-29T10:28:26.228Z,95517.41
2023-01-29T10:31:09.309Z,95521.53
2023-01-29T10:33:49.471Z,95513.84
2023-01-29T10:36:36.820Z,95519.81
2023-01-29T10:39:05.765Z,95513.69
2023-01-29T10:42:12.434Z,95510.56
2023-01-29T10:45:05.634Z,95513.41
2023-01-29T10:47:37.337Z,95517.13
2023-01-29T10:50:43.461Z,95516.97
2023-01-29T10:53:31.547Z,95506.06
2023-01-29T10:56:21.002Z,95503.50
2023-01-29T10:58:55.883Z,95510.03
2023-01-29T11:01:27.502Z,95503.72
2023-01-29T11:04:03.539Z,95509.34
2023-01-29T11:06:37.071Z,95509.78
2023-01-29T11:09:19.996Z,95509.50
2023-01-29T11:11:55.657Z,95514.69
2023-01-29T11:14:30.579Z,95514.41
2023-01-29T11:17:00.186Z,95512.63
2023-01-29T11:19:43.233Z,95517.47
2023-01-29T11:22:24.217Z,95518.88
2023-01-29T11:25:18.971Z,95522.44
2023-01-29T11:27:53.001Z,95519.63
2023-01-29T11:30:29.388Z,95525.50
2023-01-29T11:33:13.551Z,95515.19
2023-01-29T11:35:42.687Z,95515.47
2023-01-29T11:38:17.385Z,95524.69
2023-01-29T11:40:46.342Z,95532.09
2023-01-29T11:43:23.918Z,95526.03
2023-01-29T11:45:56.954Z,95524.47
2023-01-29T11:48:40.150Z,95521.81
2023-01-29T11:51:12.517Z,95522.59
2023-01-29T11:53:50.277Z,95520.72
2023-01-29T11:56:24.965Z,95527.47
2023-01-29T11:58:56.913Z,95527.72
2023-01-29T12:01:39.689Z,95524.78
2023-01-29T12:04:23.198Z,95535.59
2023-01-29T12:06:54.901Z,95524.59
2023-01-29T12:09:30.188Z,95512.31
2023-01-29T12:12:18.806Z,95527.44
2023-01-29T12:14:47.760Z,95527.94
2023-01-29T12:17:27.345Z,95524.78
2023-01-29T12:20:04.707Z,95523.97
2023-01-29T12:22:56.684Z,95526.53
2023-01-29T12:25:34.338Z,95521.19
2023-01-29T12:28:33.100Z,95509.91
2023-01-29T12:31:15.792Z,95518.47
2023-01-29T12:33:55.345Z,95511.28
2023-01-29T12:36:44.108Z,95509.13
2023-01-29T12:39:17.654Z,95498.88
2023-01-29T12:42:01.291Z,95503.03
2023-01-29T12:44:44.170Z,95486.31
2023-01-29T12:47:38.959Z,95496.13
2023-01-29T12:50:24.348Z,95503.16
2023-01-29T12:53:01.404Z,95499.19
2023-01-29T12:55:48.374Z,95502.53
2023-01-29T12:58:39.194Z,95501.75
2023-01-29T13:01:15.320Z,95505.44
2023-01-29T13:04:00.845Z,95501.25
2023-01-29T13:06:37.495Z,95503.81
2023-01-29T13:09:12.742Z,95501.69
2023-01-29T13:11:44.463Z,95501.75
2023-01-29T13:14:29.492Z,95511.13
2023-01-29T13:17:15.263Z,95505.09
2023-01-29T13:20:04.851Z,95506.72
2023-01-29T13:22:38.852Z,95522.81
2023-01-29T13:25:13.397Z,95519.19
2023-01-29T13:27:46.394Z,95510.78
2023-01-29T13:30:37.451Z,95515.31
2023-01-29T13:33:10.634Z,95519.53
2023-01-29T13:35:43.746Z,95526.16
2023-01-29T13:38:33.993Z,95519.66
2023-01-29T13:41:11.535Z,95533.25
2023-01-29T13:43:43.549Z,95525.19
2023-01-29T13:46:21.870Z,95513.69
2023-01-29T13:48:55.104Z,95515.69
2023-01-29T13:51:33.255Z,95520.28
2023-01-29T13:54:06.648Z,95516.41
2023-01-29T13:56:35.493Z,95508.09
2023-01-29T13:59:06.950Z,95501.38
2023-01-29T14:01:49.037Z,95505.91
2023-01-29T14:04:26.119Z,95508.56
2023-01-29T14:06:59.386Z,95511.03
2023-01-29T14:09:38.332Z,95511.38
2023-01-29T14:12:22.528Z,95504.06
2023-01-29T14:14:55.666Z,95511.22
2023-01-29T14:17:27.752Z,95510.19
2023-01-29T14:20:18.431Z,95507.59
2023-01-29T14:22:56.932Z,95498.16
2023-01-29T14:25:34.495Z,95497.09
2023-01-29T14:28:07.765Z,95486.41
2023-01-29T14:30:38.723Z,95494.00
2023-01-29T14:33:40.376Z,95498.00
2023-01-29T14:36:16.314Z,95494.91
2023-01-29T14:38:52.645Z,95459.66
2023-01-29T14:41:33.432Z,95482.41
2023-01-29T14:44:39.497Z,95489.53
2023-01-29T14:47:18.703Z,95482.75
2023-01-29T14:49:57.878Z,95487.50
2023-01-29T14:52:38.329Z,95480.19
2023-01-29T14:55:29.143Z,95489.88
2023-01-29T14:57:58.930Z,95465.53
2023-01-29T15:00:31.925Z,95478.38
2023-01-29T15:03:03.633Z,95489.63
2023-01-29T15:05:37.975Z,95487.56
2023-01-29T15:08:31.988Z,95488.56
2023-01-29T15:11:30.790Z,95500.06
2023-01-29T15:14:18.004Z,95491.16
2023-01-29T15:17:06.654Z,95501.13
2023-01-29T15:19:51.481Z,95498.00
2023-01-29T15:22:26.662Z,95496.44
2023-01-29T15:25:15.241Z,95491.19
2023-01-29T15:27:46.430Z,95499.59
2023-01-29T15:30:22.752Z,95500.66
2023-01-29T15:32:52.053Z,95496.19
2023-01-29T15:35:26.679Z,95500.94
2023-01-29T15:38:06.761Z,95498.31
2023-01-29T15:40:35.828Z,95486.81
2023-01-29T15:43:23.975Z,95479.25
2023-01-29T15:45:58.008Z,95475.88
2023-01-29T15:48:42.456Z,95476.38
2023-01-29T15:51:20.728Z,95484.28
2023-01-29T15:53:53.890Z,95488.44
2023-01-29T15:56:32.033Z,95489.53
2023-01-29T15:59:07.278Z,95481.66
2023-01-29T16:01:39.416Z,95483.47
2023-01-29T16:04:34.251Z,95482.44
2023-01-29T16:07:04.948Z,95488.25
2023-01-29T16:09:33.901Z,95483.31
2023-01-29T16:12:03.489Z,95467.94
2023-01-29T16:14:32.799Z,95478.16
2023-01-29T16:17:22.750Z,95462.44
2023-01-29T16:20:02.983Z,95479.22
2023-01-29T16:22:36.317Z,95473.19
2023-01-29T16:25:15.974Z,95478.97
2023-01-29T16:27:45.438Z,95481.31
2023-01-29T16:30:19.144Z,95478.41
2023-01-29T16:32:48.100Z,95475.50
2023-01-29T16:35:18.109Z,95476.25
2023-01-29T16:37:52.207Z,95466.50
2023-01-29T16:40:33.255Z,95472.22
2023-01-29T16:43:20.761Z,95476.63
2023-01-29T16:46:04.675Z,95480.28
2023-01-29T16:48:35.371Z,95471.66
2023-01-29T16:51:07.032Z,95468.53
2023-01-29T16:53:36.753Z,95477.75
2023-01-29T16:56:09.209Z,95471.78
2023-01-29T16:58:38.185Z,95465.78
2023-01-29T17:01:12.330Z,95447.53
2023-01-29T17:03:42.793Z,95463.19
2023-01-29T17:06:32.161Z,95448.31
2023-01-29T17:09:02.256Z,95459.59
2023-01-29T17:11:45.006Z,95453.81
2023-01-29T17:14:20.060Z,95461.97
2023-01-29T17:17:02.866Z,95463.00
2023-01-29T17:19:32.066Z,95454.63
2023-01-29T17:22:05.234Z,95458.06
2023-01-29T17:24:34.103Z,95462.78
2023-01-29T17:27:03.216Z,95459.63
2023-01-29T17:29:32.654Z,95469.59
2023-01-29T17:32:01.710Z,95463.31
2023-01-29T17:34:30.648Z,95465.09
2023-01-29T17:37:02.326Z,95461.66
2023-01-29T17:39:31.332Z,95477.09
2023-01-29T17:42:01.951Z,95481.50
2023-01-29T17:44:31.101Z,95483.28
2023-01-29T17:47:01.370Z,95465.72
2023-01-29T17:49:33.012Z,95481.94
2023-01-29T17:52:02.220Z,95484.00
2023-01-29T17:54:31.651Z,95473.03
2023-01-29T17:57:00.949Z,95481.41
2023-01-29T17:59:32.799Z,95486.91
2023-01-29T18:02:02.627Z,95483.19
2023-01-29T18:04:31.664Z,95483.97
2023-01-29T18:07:00.513Z,95492.88
2023-01-29T18:09:29.313Z,95501.78
2023-01-29T18:11:58.124Z,95494.94
2023-01-29T18:14:27.214Z,95497.84
2023-01-29T18:16:57.385Z,95503.09
2023-01-29T18:19:31.682Z,95503.38
2023-01-29T18:22:00.556Z,95509.91
2023-01-29T18:24:29.341Z,95498.88
2023-01-29T18:26:58.091Z,95509.88
2023-01-29T18:29:30.680Z,95506.19
2023-01-29T18:32:00.225Z,95506.47
2023-01-29T18:34:29.679Z,95500.69
2023-01-29T18:37:00.943Z,95504.66
2023-01-29T18:39:29.952Z,95505.19
2023-01-29T18:41:58.804Z,95507.34
2023-01-29T18:44:30.200Z,95510.50
2023-01-29T18:46:58.983Z,95514.44
2023-01-29T18:49:27.762Z,95519.94
2023-01-29T18:51:56.906Z,95514.69
2023-01-29T18:54:25.775Z,95519.16
2023-01-29T18:57:06.188Z,95510.25
2023-01-29T18:59:42.622Z,95520.25
2023-01-29T19:02:17.093Z,95517.66
2023-01-29T19:04:46.988Z,95522.63
2023-01-29T19:07:16.848Z,95532.59
2023-01-29T19:09:47.139Z,95531.03
2023-01-29T19:12:15.918Z,95521.59
2023-01-29T19:14:44.789Z,95534.69
2023-01-29T19:17:13.669Z,95534.69
2023-01-29T19:19:42.568Z,95533.59
2023-01-29T19:22:17.104Z,95538.06
2023-01-29T19:24:46.423Z,95536.19
2023-01-29T19:27:15.237Z,95542.75
2023-01-29T19:29:44.108Z,95538.25
2023-01-29T19:32:13.039Z,95534.03
2023-01-29T19:34:41.874Z,95541.09
2023-01-29T19:37:10.723Z,95530.38
2023-01-29T19:39:39.506Z,95541.41
2023-01-29T19:42:08.405Z,95539.31
2023-01-29T19:44:37.193Z,95541.97
2023-01-29T19:47:06.185Z,95538.06
2023-01-29T19:49:34.983Z,95543.28
2023-01-29T19:52:04.304Z,95547.25
2023-01-29T19:54:33.286Z,95541.19
2023-01-29T19:57:02.140Z,95550.63
2023-01-29T19:59:30.906Z,95546.16
2023-01-29T20:02:00.660Z,95557.72
2023-01-29T20:04:30.686Z,95552.22
2023-01-29T20:07:00.077Z,95546.22
2023-01-29T20:09:31.101Z,95558.25
2023-01-29T20:11:59.871Z,95555.09
2023-01-29T20:14:28.642Z,95542.78
2023-01-29T20:16:57.438Z,95548.00
2023-01-29T20:19:26.207Z,95544.34
2023-01-29T20:21:55.352Z,95552.47
2023-01-29T20:24:25.182Z,95550.34
2023-01-29T20:26:53.993Z,95552.97
2023-01-29T20:29:22.803Z,95553.50
2023-01-29T20:31:51.629Z,95556.63
2023-01-29T20:34:20.491Z,95558.69
2023-01-29T20:36:49.266Z,95569.72
2023-01-29T20:39:18.181Z,95568.69
2023-01-29T20:41:46.986Z,95561.06
2023-01-29T20:44:15.787Z,95567.88
2023-01-29T20:46:45.131Z,95568.41
2023-01-29T20:49:13.919Z,95573.69
2023-01-29T20:51:43.927Z,95570.03
2023-01-29T20:54:15.611Z,95568.50
2023-01-29T20:56:46.353Z,95571.63
2023-01-29T20:59:16.244Z,95569.28
2023-01-29T21:01:46.932Z,95569.56
2023-01-29T21:04:15.881Z,95561.22
2023-01-29T21:06:44.667Z,95567.50
2023-01-29T21:09:13.455Z,95552.09
2023-01-29T21:11:42.315Z,95558.66
2023-01-29T21:14:11.103Z,95544.50
2023-01-29T21:16:39.960Z,95549.75
2023-01-29T21:19:09.553Z,95550.81
2023-01-29T21:21:38.606Z,95545.06
2023-01-29T21:24:09.473Z,95546.09
2023-01-29T21:26:40.966Z,95555.00
2023-01-29T21:29:11.885Z,95548.47
2023-01-29T21:31:41.176Z,95551.63
2023-01-29T21:34:10.920Z,95536.66
2023-01-29T21:36:40.210Z,95546.09
2023-01-29T21:39:18.232Z,95539.78
2023-01-29T21:42:07.735Z,95536.09
2023-01-29T21:44:37.594Z,95552.09
2023-01-29T21:47:12.861Z,95551.28
2023-01-29T21:49:45.588Z,95549.75
2023-01-29T21:52:15.665Z,95548.44
2023-01-29T21:54:49.317Z,95549.22
2023-01-29T21:57:18.418Z,95553.41
2023-01-29T21:59:52.404Z,95547.91
2023-01-29T22:02:24.689Z,95553.91
2023-01-29T22:05:08.795Z,95554.72
2023-01-29T22:07:45.191Z,95549.47
2023-01-29T22:10:14.378Z,95554.47
2023-01-29T22:12:44.341Z,95561.28
2023-01-29T22:15:13.709Z,95558.91
2023-01-29T22:17:42.862Z,95565.97
2023-01-29T22:20:13.609Z,95564.94
2023-01-29T22:22:42.768Z,95565.19
2023-01-29T22:25:11.606Z,95563.63
2023-01-29T22:27:41.555Z,95564.13
2023-01-29T22:30:11.296Z,95579.34
2023-01-29T22:32:40.183Z,95568.34
2023-01-29T22:35:10.091Z,95585.09
2023-01-29T22:37:38.906Z,95569.66
2023-01-29T22:40:08.437Z,95590.06
2023-01-29T22:42:37.238Z,95599.53
2023-01-29T22:45:06.485Z,95593.50
2023-01-29T22:47:35.538Z,95608.44
2023-01-29T22:50:08.039Z,95602.13
2023-01-29T22:52:40.086Z,95603.97
2023-01-29T22:55:11.284Z,95605.53
2023-01-29T22:57:41.244Z,95617.59
2023-01-29T23:00:12.848Z,95613.94
2023-01-29T23:02:42.306Z,95613.94
2023-01-29T23:05:11.240Z,95618.38
2023-01-29T23:07:40.111Z,95619.44
2023-01-29T23:10:10.882Z,95629.63
2023-01-29T23:12:41.282Z,95634.63
2023-01-29T23:15:10.383Z,95621.25
2023-01-29T23:17:40.272Z,95635.41
2023-01-29T23:20:09.700Z,95648.47
2023-01-29T23:22:38.921Z,95637.75
2023-01-29T23:25:07.988Z,95646.66
2023-01-29T23:27:37.095Z,95644.84
2023-01-29T23:30:07.259Z,95642.50
2023-01-29T23:32:36.276Z,95635.97
2023-01-29T23:35:05.393Z,95651.97
2023-01-29T23:37:34.384Z,95644.38
2023-01-29T23:40:03.473Z,95652.50
2023-01-29T23:42:32.339Z,95642.81
2023-01-29T23:45:01.154Z,95647.25
2023-01-29T23:47:31.560Z,95649.09
2023-01-29T23:50:00.443Z,95653.81
2023-01-29T23:52:29.414Z,95656.16
2023-01-29T23:54:58.160Z,95659.88
2023-01-29T23:57:27.004Z,95664.56
2023-01-29T23:59:55.802Z,95676.38
